KDAB/DAB METAR and TAF weather

Enter ICAO airport designator
Station Type Date Time Source
KDAB METAR 2019/04/24 21:53 UTC NOAA

KDAB 242153Z 11005KT 10SM FEW050 BKN250 26/16 A3000 RMK AO2 SLP158 T02610161


Station Type Date Time Source
KDAB Decoded METAR 2019/04/24 21:53 UTC NOAA

DAYTONA BEACH INTERNATIONAL, FL, United States (KDAB) 29-10N 81-04W 9M
Apr 24, 2019 - 05:53 PM EDT / 2019.04.24 2153 UTC
Wind: from the ESE (110 degrees) at 6 MPH (5 KT):0
Visibility: 10 mile(s):0
Sky conditions: mostly cloudy
Temperature: 79.0 F (26.1 C)
Dew Point: 61.0 F (16.1 C)
Relative Humidity: 54%
Pressure (altimeter): 30 in. Hg (1015 hPa)
ob: KDAB 242153Z 11005KT 10SM FEW050 BKN250 26/16 A3000 RMK AO2 SLP158 T02610161
cycle: 22

Station Type Date Time Source
KDAB TAF 2019/04/24 18:27 UTC NOAA

TAF KDAB 241720Z 2418/2518 10007KT P6SM SKC
FM250200 VRB02KT P6SM FEW250
FM251400 18007KT P6SM SCT250

Example: see airport list